Time;durP1;ratioP1;P1;durP2;ratioP2;P2;SDS_P1;SDS_P2;PMS_P1;PMS_P2;Temp;Humidity;BMP_temperature;BMP_pressure;BME280_temperature;BME280_humidity;BME280_pressure;Samples;Min_cycle;Max_cycle;Signal;HPM_P1;HPM_P2
2022/09/27 00:00:23;;;;;;;2.58;0.70;;;;;;;;;;5016252;28;20030;-80
2022/09/27 00:02:48;;;;;;;2.47;0.70;;;;;;;;;;4999440;28;20044;-80
2022/09/27 00:05:14;;;;;;;2.35;0.95;;;;;;;;;;4983432;28;20033;-80
2022/09/27 00:07:40;;;;;;;1.92;0.70;;;;;;;;;;5016049;28;20033;-79
2022/09/27 00:10:07;;;;;;;1.85;0.57;;;;;;;;;;4998992;28;20029;-80
2022/09/27 00:12:33;;;;;;;2.10;0.80;;;;;;;;;;5015877;28;20037;-80
2022/09/27 00:14:59;;;;;;;2.35;0.90;;;;;;;;;;5015722;28;20059;-80
2022/09/27 00:17:25;;;;;;;2.30;1.15;;;;;;;;;;4999558;28;20029;-80
2022/09/27 00:19:50;;;;;;;1.95;0.80;;;;;;;;;;4999457;28;20502;-81
2022/09/27 00:22:16;;;;;;;2.75;0.75;;;;;;;;;;4999104;28;20387;-80
2022/09/27 00:24:41;;;;;;;2.53;0.73;;;;;;;;;;5000524;28;20041;-80
2022/09/27 00:27:07;;;;;;;2.15;0.60;;;;;;;;;;5035168;28;20435;-80
2022/09/27 00:29:32;;;;;;;1.88;0.70;;;;;;;;;;5002289;28;20368;-80
2022/09/27 00:31:58;;;;;;;1.55;0.60;;;;;;;;;;5002227;28;20067;-79
2022/09/27 00:34:24;;;;;;;2.30;0.75;;;;;;;;;;5002380;28;20101;-80
2022/09/27 00:36:50;;;;;;;2.88;0.60;;;;;;;;;;5001998;28;20032;-79
2022/09/27 00:39:15;;;;;;;2.50;0.80;;;;;;;;;;5018386;28;20033;-80
2022/09/27 00:41:41;;;;;;;2.58;0.60;;;;;;;;;;5034920;28;20037;-80
2022/09/27 00:44:25;;;;;;;1.65;0.50;;;;;;;;;;5002047;28;20360;-79
2022/09/27 00:47:20;;;;;;;2.10;0.45;;;;;;;;;;5034568;28;20492;-80
2022/09/27 00:49:54;;;;;;;1.65;0.60;;;;;;;;;;5013309;28;20052;-80
2022/09/27 00:52:24;;;;;;;1.80;0.57;;;;;;;;;;5017815;28;20063;-80
2022/09/27 00:54:51;;;;;;;3.88;0.90;;;;;;;;;;5034307;28;20033;-80
2022/09/27 00:57:17;;;;;;;1.52;0.50;;;;;;;;;;5018077;28;20041;-79
2022/09/27 01:00:05;;;;;;;1.88;0.63;;;;;;;;;;5018217;28;20055;-79
2022/09/27 01:02:30;;;;;;;1.63;0.60;;;;;;;;;;5017584;28;20471;-80
2022/09/27 01:04:56;;;;;;;1.92;0.57;;;;;;;;;;5000712;28;20035;-80
2022/09/27 01:07:21;;;;;;;3.28;0.50;;;;;;;;;;5017183;28;20426;-79
2022/09/27 01:09:46;;;;;;;1.08;0.30;;;;;;;;;;5017429;28;20055;-79
2022/09/27 01:12:30;;;;;;;2.90;0.70;;;;;;;;;;5000701;28;20067;-79
2022/09/27 01:15:33;;;;;;;1.77;0.47;;;;;;;;;;5017706;28;20033;-79
2022/09/27 01:18:27;;;;;;;2.10;0.75;;;;;;;;;;5017677;28;20494;-80
2022/09/27 01:21:30;;;;;;;1.77;0.60;;;;;;;;;;5017514;28;20032;-80
2022/09/27 01:24:24;;;;;;;2.65;0.77;;;;;;;;;;5034043;28;20072;-80
2022/09/27 01:27:17;;;;;;;2.15;0.52;;;;;;;;;;5015431;28;20044;-80
2022/09/27 01:29:51;;;;;;;2.33;0.82;;;;;;;;;;5014455;28;20029;-80
2022/09/27 01:32:45;;;;;;;1.50;0.60;;;;;;;;;;4998251;28;20025;-80
2022/09/27 01:35:35;;;;;;;1.30;0.50;;;;;;;;;;5014473;28;20037;-80
2022/09/27 01:38:00;;;;;;;3.10;0.50;;;;;;;;;;4997747;28;20029;-80
2022/09/27 01:40:32;;;;;;;1.38;0.40;;;;;;;;;;5014056;28;20032;-80
2022/09/27 01:43:03;;;;;;;1.63;0.40;;;;;;;;;;4997558;28;20040;-81
2022/09/27 01:45:37;;;;;;;2.55;0.60;;;;;;;;;;4997980;28;20029;-81
2022/09/27 01:48:22;;;;;;;1.63;0.40;;;;;;;;;;4999058;28;20024;-81
2022/09/27 01:50:58;;;;;;;1.33;0.43;;;;;;;;;;5021005;28;20025;-80
2022/09/27 01:53:38;;;;;;;1.27;0.40;;;;;;;;;;5036584;28;20032;-80
2022/09/27 01:56:06;;;;;;;0.85;0.25;;;;;;;;;;5001260;28;20041;-81
2022/09/27 01:58:35;;;;;;;1.67;0.35;;;;;;;;;;5024384;28;20048;-81
2022/09/27 02:01:00;;;;;;;2.13;0.73;;;;;;;;;;4997696;28;20084;-81
2022/09/27 02:03:33;;;;;;;1.83;0.40;;;;;;;;;;5013414;28;20041;-81
2022/09/27 02:06:00;;;;;;;;;;;;;;;;;;4997696;28;20076;-80
2022/09/27 02:08:35;;;;;;;1.60;0.40;;;;;;;;;;5013854;28;19909;-80
2022/09/27 02:11:02;;;;;;;1.15;0.43;;;;;;;;;;5014118;28;20033;-80
2022/09/27 02:13:47;;;;;;;1.17;0.28;;;;;;;;;;5013502;28;20030;-80
2022/09/27 02:16:48;;;;;;;1.50;0.30;;;;;;;;;;5013824;28;20021;-80
2022/09/27 02:19:53;;;;;;;0.73;0.28;;;;;;;;;;4989572;28;20067;-80
2022/09/27 02:22:52;;;;;;;2.20;0.40;;;;;;;;;;5016761;28;20084;-80
2022/09/27 02:25:25;;;;;;;0.68;0.30;;;;;;;;;;5040607;28;20430;-80
2022/09/27 02:28:04;;;;;;;0.65;0.22;;;;;;;;;;5005094;28;20052;-80
2022/09/27 02:30:29;;;;;;;1.10;0.32;;;;;;;;;;5022000;28;20033;-80
2022/09/27 02:32:55;;;;;;;2.60;0.68;;;;;;;;;;5004285;28;20106;-81
2022/09/27 02:35:28;;;;;;;1.23;0.40;;;;;;;;;;5004408;28;20032;-80
2022/09/27 02:37:55;;;;;;;1.50;0.30;;;;;;;;;;5021127;28;20036;-80
2022/09/27 02:40:20;;;;;;;0.93;0.28;;;;;;;;;;4987827;28;20029;-80
2022/09/27 02:42:46;;;;;;;0.85;0.30;;;;;;;;;;5003981;28;20048;-80
2022/09/27 02:45:11;;;;;;;1.80;0.68;;;;;;;;;;5004240;28;20062;-80
2022/09/27 02:47:48;;;;;;;1.73;0.40;;;;;;;;;;5025609;28;20033;-80
2022/09/27 02:50:32;;;;;;;3.70;0.52;;;;;;;;;;5024828;28;20024;-81
2022/09/27 02:53:09;;;;;;;2.63;0.60;;;;;;;;;;5018884;28;20037;-80
2022/09/27 02:55:38;;;;;;;0.98;0.35;;;;;;;;;;5013490;28;20039;-80
2022/09/27 02:58:04;;;;;;;1.80;0.50;;;;;;;;;;5020254;28;20044;-80
2022/09/27 03:01:06;;;;;;;1.70;0.30;;;;;;;;;;5036945;28;20395;-80
2022/09/27 03:03:45;;;;;;;1.38;0.30;;;;;;;;;;4981010;28;20046;-80
2022/09/27 03:06:11;;;;;;;1.42;0.28;;;;;;;;;;5013118;28;20045;-80
2022/09/27 03:08:40;;;;;;;2.30;0.57;;;;;;;;;;5019921;28;20538;-80
2022/09/27 03:11:06;;;;;;;0.98;0.40;;;;;;;;;;5019941;28;20124;-81
2022/09/27 03:13:33;;;;;;;0.82;0.22;;;;;;;;;;5020010;28;20534;-80
2022/09/27 03:15:59;;;;;;;1.55;0.35;;;;;;;;;;5020403;28;20025;-80
2022/09/27 03:18:24;;;;;;;1.20;0.32;;;;;;;;;;5019994;28;20064;-80
2022/09/27 03:20:52;;;;;;;0.95;0.30;;;;;;;;;;5003478;28;20033;-80
2022/09/27 03:23:17;;;;;;;2.17;0.40;;;;;;;;;;5020017;28;20029;-81
2022/09/27 03:25:43;;;;;;;0.63;0.28;;;;;;;;;;5019380;28;20083;-80
2022/09/27 03:28:08;;;;;;;0.32;0.10;;;;;;;;;;5019808;28;20446;-80
2022/09/27 03:30:34;;;;;;;0.77;0.20;;;;;;;;;;5019664;28;20072;-81
2022/09/27 03:33:00;;;;;;;0.63;0.30;;;;;;;;;;5003704;28;20395;-80
2022/09/27 03:35:25;;;;;;;1.52;0.30;;;;;;;;;;5003099;28;20526;-80
2022/09/27 03:37:51;;;;;;;1.27;0.20;;;;;;;;;;5036067;28;20387;-80
2022/09/27 03:40:16;;;;;;;0.90;0.10;;;;;;;;;;5019380;28;20360;-79
2022/09/27 03:42:42;;;;;;;1.75;0.28;;;;;;;;;;5019428;28;20044;-80
2022/09/27 03:45:07;;;;;;;1.10;0.38;;;;;;;;;;5001401;28;20068;-79
2022/09/27 03:47:33;;;;;;;0.50;0.20;;;;;;;;;;5009039;28;20436;-80
2022/09/27 03:49:58;;;;;;;0.47;0.13;;;;;;;;;;5039218;28;20031;-80
2022/09/27 03:52:24;;;;;;;1.15;0.17;;;;;;;;;;5022454;28;20212;-79
2022/09/27 03:54:49;;;;;;;1.20;0.20;;;;;;;;;;5012637;28;20412;-80
2022/09/27 03:57:15;;;;;;;0.80;0.30;;;;;;;;;;4999737;28;20396;-79
2022/09/27 03:59:40;;;;;;;1.20;0.30;;;;;;;;;;4983373;28;20021;-80
2022/09/27 04:02:06;;;;;;;0.73;0.10;;;;;;;;;;4999129;28;20035;-79
2022/09/27 04:04:31;;;;;;;1.05;0.20;;;;;;;;;;4983183;28;20038;-80
2022/09/27 04:06:58;;;;;;;1.88;0.25;;;;;;;;;;4983043;28;20064;-80
2022/09/27 04:09:23;;;;;;;0.57;0.10;;;;;;;;;;4999064;28;20120;-82
2022/09/27 04:11:49;;;;;;;0.57;0.17;;;;;;;;;;4999037;28;20033;-81
2022/09/27 04:14:14;;;;;;;1.27;0.20;;;;;;;;;;4999173;28;20472;-81
2022/09/27 04:16:39;;;;;;;2.13;0.30;;;;;;;;;;4983005;28;20369;-82
2022/09/27 04:19:06;;;;;;;0.65;0.10;;;;;;;;;;4983087;28;20088;-81
2022/09/27 04:21:32;;;;;;;0.45;0.15;;;;;;;;;;4999232;28;20044;-82
2022/09/27 04:23:58;;;;;;;0.52;0.20;;;;;;;;;;4998504;28;20484;-82
2022/09/27 04:26:24;;;;;;;0.82;0.13;;;;;;;;;;5011256;28;20088;-82
2022/09/27 04:28:51;;;;;;;1.05;0.50;;;;;;;;;;4999736;28;20052;-81
2022/09/27 04:31:17;;;;;;;2.15;0.40;;;;;;;;;;4982762;28;20036;-81
2022/09/27 04:33:42;;;;;;;4.72;0.28;;;;;;;;;;4982903;28;20419;-79
2022/09/27 04:36:25;;;;;;;2.08;0.30;;;;;;;;;;4998654;28;20476;-79
2022/09/27 04:38:54;;;;;;;1.92;0.20;;;;;;;;;;4986442;28;20053;-79
2022/09/27 04:41:20;;;;;;;5.70;1.40;;;;;;;;;;4997218;28;20037;-81
2022/09/27 04:43:46;;;;;;;6.40;0.73;;;;;;;;;;4966006;28;20398;-82
2022/09/27 04:46:13;;;;;;;9.80;3.53;;;;;;;;;;4966508;28;20029;-82
2022/09/27 04:48:40;;;;;;;7.43;3.15;;;;;;;;;;4993535;28;20029;-82
2022/09/27 04:51:05;;;;;;;5.65;2.75;;;;;;;;;;5005203;28;20028;-82
2022/09/27 04:53:31;;;;;;;10.05;2.58;;;;;;;;;;5004572;28;20036;-82
2022/09/27 04:55:56;;;;;;;7.72;2.75;;;;;;;;;;5002645;28;20064;-82
2022/09/27 04:58:22;;;;;;;10.40;2.60;;;;;;;;;;4998698;28;20044;-81
2022/09/27 05:00:49;;;;;;;6.40;2.40;;;;;;;;;;4998553;28;20403;-81
2022/09/27 05:03:14;;;;;;;9.80;2.70;;;;;;;;;;5015102;28;20083;-82
2022/09/27 05:05:40;;;;;;;14.40;2.72;;;;;;;;;;4988199;28;20049;-82
2022/09/27 05:08:06;;;;;;;11.30;3.10;;;;;;;;;;4997881;28;20439;-81
2022/09/27 05:10:31;;;;;;;9.35;2.92;;;;;;;;;;4998512;28;20538;-81
2022/09/27 05:12:56;;;;;;;9.75;2.75;;;;;;;;;;4997948;28;20420;-81
2022/09/27 05:15:22;;;;;;;7.57;1.92;;;;;;;;;;4998008;28;20033;-81
2022/09/27 05:17:50;;;;;;;7.75;1.98;;;;;;;;;;4997917;28;20418;-81
2022/09/27 05:20:15;;;;;;;4.40;1.48;;;;;;;;;;4998272;28;20041;-81
2022/09/27 05:22:41;;;;;;;13.20;1.83;;;;;;;;;;4996998;28;20526;-81
2022/09/27 05:25:07;;;;;;;7.22;1.80;;;;;;;;;;5002818;28;20029;-81
2022/09/27 05:27:32;;;;;;;7.97;2.22;;;;;;;;;;5000305;28;20067;-81
2022/09/27 05:30:00;;;;;;;6.15;1.95;;;;;;;;;;5016576;28;20513;-81
2022/09/27 05:32:26;;;;;;;5.82;1.67;;;;;;;;;;5017004;28;20056;-80
2022/09/27 05:34:55;;;;;;;5.00;1.60;;;;;;;;;;5018923;28;20068;-80
2022/09/27 05:37:20;;;;;;;8.88;2.03;;;;;;;;;;4997360;28;20108;-81
2022/09/27 05:39:46;;;;;;;5.20;1.20;;;;;;;;;;4997361;28;20155;-81
2022/09/27 05:42:14;;;;;;;5.90;1.98;;;;;;;;;;5013762;28;20057;-81
2022/09/27 05:44:39;;;;;;;4.32;1.48;;;;;;;;;;4998995;28;20036;-81
2022/09/27 05:47:05;;;;;;;4.55;1.20;;;;;;;;;;4983056;28;20033;-81
2022/09/27 05:49:31;;;;;;;5.00;1.23;;;;;;;;;;5020862;28;20035;-81
2022/09/27 05:51:57;;;;;;;3.22;0.98;;;;;;;;;;5003758;28;20028;-80
2022/09/27 05:54:22;;;;;;;4.15;1.30;;;;;;;;;;5017992;28;20032;-81
2022/09/27 05:56:47;;;;;;;2.97;1.20;;;;;;;;;;5016259;28;20115;-80
2022/09/27 05:59:13;;;;;;;5.50;0.98;;;;;;;;;;5000728;28;20423;-81
2022/09/27 06:01:38;;;;;;;5.28;1.40;;;;;;;;;;5000626;28;20044;-81
2022/09/27 06:04:04;;;;;;;5.25;1.30;;;;;;;;;;5000875;28;20766;-80
2022/09/27 06:06:30;;;;;;;4.28;1.25;;;;;;;;;;5016741;28;20045;-81
2022/09/27 06:08:56;;;;;;;3.67;1.20;;;;;;;;;;5000547;28;20090;-81
2022/09/27 06:11:21;;;;;;;3.55;1.05;;;;;;;;;;5001313;28;20036;-80
2022/09/27 06:13:47;;;;;;;3.72;0.90;;;;;;;;;;4984430;28;20035;-80
2022/09/27 06:16:12;;;;;;;5.05;1.67;;;;;;;;;;5000633;28;20029;-80
2022/09/27 06:18:38;;;;;;;5.43;1.77;;;;;;;;;;5017093;28;20052;-80
2022/09/27 06:21:04;;;;;;;6.00;1.92;;;;;;;;;;5017550;28;20025;-80
2022/09/27 06:23:33;;;;;;;11.00;5.22;;;;;;;;;;5000594;28;20025;-80
2022/09/27 06:26:03;;;;;;;12.18;5.97;;;;;;;;;;5017783;28;20395;-81
2022/09/27 06:28:29;;;;;;;89.65;43.40;;;;;;;;;;5017224;28;20040;-81
2022/09/27 06:30:55;;;;;;;34.65;20.60;;;;;;;;;;5000379;28;20064;-80
2022/09/27 06:33:20;;;;;;;49.03;23.45;;;;;;;;;;4984369;28;20033;-81
2022/09/27 06:35:48;;;;;;;35.95;20.88;;;;;;;;;;5000025;28;20051;-81
2022/09/27 06:38:14;;;;;;;28.70;19.20;;;;;;;;;;5001041;28;20108;-81
2022/09/27 06:40:44;;;;;;;38.25;18.27;;;;;;;;;;5000352;28;20051;-81
2022/09/27 06:43:10;;;;;;;34.92;19.10;;;;;;;;;;5002541;28;20033;-81
2022/09/27 06:45:36;;;;;;;33.67;18.38;;;;;;;;;;5017401;28;20129;-80
2022/09/27 06:48:02;;;;;;;27.55;16.98;;;;;;;;;;5025750;28;20056;-81
2022/09/27 06:50:28;;;;;;;33.00;18.45;;;;;;;;;;5019790;28;20064;-80
2022/09/27 06:52:56;;;;;;;27.38;15.80;;;;;;;;;;5019871;28;20036;-80
2022/09/27 06:55:21;;;;;;;40.92;24.67;;;;;;;;;;5005809;28;20092;-82
2022/09/27 07:00:31;;;;;;;34.75;20.08;;;;;;;;;;4999323;28;20128;-81
2022/09/27 07:03:01;;;;;;;31.75;19.80;;;;;;;;;;4980740;28;20386;-80
2022/09/27 07:05:30;;;;;;;36.83;19.42;;;;;;;;;;4997574;28;20030;-79
2022/09/27 07:07:58;;;;;;;31.02;17.83;;;;;;;;;;4983599;28;20040;-80
2022/09/27 07:10:25;;;;;;;30.98;17.45;;;;;;;;;;5000290;28;20512;-80
2022/09/27 07:12:51;;;;;;;28.50;16.23;;;;;;;;;;4984223;28;20033;-80
2022/09/27 07:15:22;;;;;;;29.02;16.48;;;;;;;;;;4985001;28;20403;-79
2022/09/27 07:17:54;;;;;;;28.40;17.17;;;;;;;;;;4985009;28;20028;-80
2022/09/27 07:20:20;;;;;;;21.92;15.25;;;;;;;;;;4984121;28;20128;-80
2022/09/27 07:22:45;;;;;;;21.30;14.27;;;;;;;;;;4983861;28;20120;-80
2022/09/27 07:25:11;;;;;;;29.58;16.27;;;;;;;;;;5006044;28;20037;-80
2022/09/27 07:27:37;;;;;;;29.20;14.10;;;;;;;;;;5000398;28;20100;-79
2022/09/27 07:30:03;;;;;;;29.02;15.05;;;;;;;;;;5000115;28;20030;-80
2022/09/27 07:32:28;;;;;;;24.77;13.60;;;;;;;;;;4999399;28;20079;-80
2022/09/27 07:34:59;;;;;;;23.83;13.40;;;;;;;;;;4999873;28;20064;-79
2022/09/27 07:37:24;;;;;;;26.77;12.80;;;;;;;;;;5000312;28;20036;-80
2022/09/27 07:39:50;;;;;;;22.13;13.23;;;;;;;;;;5016339;28;20037;-80
2022/09/27 07:42:15;;;;;;;28.05;11.93;;;;;;;;;;4999480;28;20388;-80
2022/09/27 07:44:40;;;;;;;22.55;12.43;;;;;;;;;;4998963;28;20080;-80
2022/09/27 07:47:07;;;;;;;24.48;11.73;;;;;;;;;;5001958;28;20404;-82
2022/09/27 07:49:32;;;;;;;23.80;11.55;;;;;;;;;;4986654;28;20185;-81
2022/09/27 07:51:57;;;;;;;23.95;11.35;;;;;;;;;;5015361;28;20033;-81
2022/09/27 07:54:23;;;;;;;20.83;10.90;;;;;;;;;;5007956;28;20041;-82
2022/09/27 07:56:48;;;;;;;20.55;11.13;;;;;;;;;;5001091;28;20619;-81
2022/09/27 07:59:14;;;;;;;23.55;11.55;;;;;;;;;;4986155;28;20024;-82
2022/09/27 08:01:39;;;;;;;19.98;11.45;;;;;;;;;;5002793;28;20048;-82
2022/09/27 08:04:05;;;;;;;16.35;10.63;;;;;;;;;;4985622;28;20033;-82
2022/09/27 08:06:30;;;;;;;15.38;9.23;;;;;;;;;;5010726;28;20036;-82
2022/09/27 08:08:57;;;;;;;18.40;9.00;;;;;;;;;;5022116;28;20376;-81
2022/09/27 08:11:23;;;;;;;18.67;9.32;;;;;;;;;;5022770;28;20032;-82
2022/09/27 08:13:51;;;;;;;12.25;8.25;;;;;;;;;;4989566;28;20035;-81
2022/09/27 08:16:16;;;;;;;14.40;8.13;;;;;;;;;;5002976;28;20118;-82
2022/09/27 08:18:42;;;;;;;16.02;9.43;;;;;;;;;;5000653;28;20045;-82
2022/09/27 08:21:07;;;;;;;14.68;8.43;;;;;;;;;;4985026;28;20487;-82
2022/09/27 08:23:35;;;;;;;14.63;7.70;;;;;;;;;;5008332;28;20029;-82
2022/09/27 08:26:01;;;;;;;14.63;7.65;;;;;;;;;;5006582;28;20044;-82
2022/09/27 08:28:26;;;;;;;9.98;7.05;;;;;;;;;;4993417;28;20028;-81
2022/09/27 08:30:52;;;;;;;14.10;7.20;;;;;;;;;;4983154;28;20480;-82
2022/09/27 08:33:17;;;;;;;12.07;7.97;;;;;;;;;;4986992;28;20108;-81
2022/09/27 08:35:45;;;;;;;13.55;6.60;;;;;;;;;;5013232;28;20065;-81
2022/09/27 08:38:15;;;;;;;11.65;5.95;;;;;;;;;;5019117;28;20025;-81
2022/09/27 08:40:58;;;;;;;11.85;6.20;;;;;;;;;;5006406;28;20495;-81
2022/09/27 08:43:29;;;;;;;9.27;5.28;;;;;;;;;;5004749;28;20029;-81
2022/09/27 08:46:09;;;;;;;11.93;6.43;;;;;;;;;;5024442;28;20067;-80
2022/09/27 08:48:40;;;;;;;8.85;5.78;;;;;;;;;;5051221;28;20024;-81
2022/09/27 08:51:12;;;;;;;12.20;5.72;;;;;;;;;;5023792;28;20063;-80
2022/09/27 08:53:40;;;;;;;10.10;4.93;;;;;;;;;;5011321;28;20506;-81
2022/09/27 08:56:07;;;;;;;9.50;5.25;;;;;;;;;;5019110;28;20061;-81
2022/09/27 08:58:53;;;;;;;7.90;5.07;;;;;;;;;;5017735;28;20356;-81
2022/09/27 09:01:19;;;;;;;10.40;4.93;;;;;;;;;;5023276;28;20056;-82
2022/09/27 09:03:49;;;;;;;8.25;4.53;;;;;;;;;;4985034;28;20033;-82
2022/09/27 09:06:21;;;;;;;9.00;4.28;;;;;;;;;;5012861;28;20033;-82
2022/09/27 09:09:04;;;;;;;8.10;4.43;;;;;;;;;;4981875;28;20039;-82
2022/09/27 09:14:32;;;;;;;7.70;4.00;;;;;;;;;;4999559;28;20376;-81
2022/09/27 09:17:27;;;;;;;8.02;3.97;;;;;;;;;;5015045;28;20481;-82
2022/09/27 09:20:18;;;;;;;11.95;4.22;;;;;;;;;;4960484;28;20136;-81
2022/09/27 09:23:21;;;;;;;5.28;3.05;;;;;;;;;;5030855;28;20120;-82
2022/09/27 09:25:49;;;;;;;;;;;;;;;;;;5017800;28;20036;-81
2022/09/27 09:28:32;;;;;;;7.93;3.67;;;;;;;;;;5036864;28;19908;-82
2022/09/27 09:31:16;;;;;;;;;;;;;;;;;;5022164;28;20037;-82
2022/09/27 09:34:09;;;;;;;7.18;3.38;;;;;;;;;;5037249;28;19954;-81
2022/09/27 09:36:34;;;;;;;;;;;;;;;;;;5003421;28;20039;-81
2022/09/27 09:39:23;;;;;;;5.07;2.65;;;;;;;;;;5012079;28;20391;-83
2022/09/27 09:42:14;;;;;;;6.55;3.55;;;;;;;;;;4995298;28;20030;-80
2022/09/27 09:44:50;;;;;;;17.05;11.63;;;;;;;;;;5013556;28;20028;-81
2022/09/27 09:47:39;;;;;;;14.98;9.23;;;;;;;;;;5002663;28;20041;-81
2022/09/27 09:50:16;;;;;;;12.50;7.15;;;;;;;;;;5037146;28;20024;-81
2022/09/27 09:52:44;;;;;;;11.60;6.43;;;;;;;;;;5045427;28;20030;-82
2022/09/27 09:55:22;;;;;;;12.32;6.63;;;;;;;;;;5016984;28;20059;-81
2022/09/27 09:58:11;;;;;;;10.77;6.53;;;;;;;;;;5013669;28;20108;-81
2022/09/27 10:00:38;;;;;;;11.68;6.38;;;;;;;;;;5033358;28;20033;-81
2022/09/27 10:03:03;;;;;;;9.98;6.15;;;;;;;;;;4983921;28;20032;-82
2022/09/27 10:05:29;;;;;;;9.52;6.05;;;;;;;;;;5000712;28;20476;-82
2022/09/27 10:07:57;;;;;;;9.82;5.85;;;;;;;;;;5000546;28;20047;-81
2022/09/27 10:10:23;;;;;;;13.70;4.88;;;;;;;;;;5033367;28;20052;-81
2022/09/27 10:12:48;;;;;;;9.40;5.00;;;;;;;;;;5000021;28;20543;-81
2022/09/27 10:15:25;;;;;;;7.75;5.25;;;;;;;;;;5017038;28;20032;-82
2022/09/27 10:17:52;;;;;;;8.80;5.03;;;;;;;;;;5000421;28;20036;-81
2022/09/27 10:20:42;;;;;;;9.00;4.82;;;;;;;;;;4984780;28;20018;-80
2022/09/27 10:23:16;;;;;;;8.75;4.28;;;;;;;;;;5016198;28;20036;-81
2022/09/27 10:25:52;;;;;;;6.95;4.45;;;;;;;;;;4982957;28;20120;-80
2022/09/27 10:28:36;;;;;;;6.53;4.15;;;;;;;;;;5016334;28;20032;-79
2022/09/27 10:31:03;;;;;;;6.60;3.47;;;;;;;;;;5032743;28;20017;-79
2022/09/27 10:33:30;;;;;;;8.27;3.70;;;;;;;;;;5000059;28;20035;-79
2022/09/27 10:35:56;;;;;;;6.80;4.25;;;;;;;;;;5014816;28;20033;-79
2022/09/27 10:38:29;;;;;;;6.35;3.53;;;;;;;;;;4980763;28;20041;-79
2022/09/27 10:40:57;;;;;;;7.80;3.85;;;;;;;;;;4998102;28;20033;-79
2022/09/27 10:43:26;;;;;;;7.00;3.40;;;;;;;;;;4999547;28;20048;-80
2022/09/27 10:46:02;;;;;;;4.97;3.05;;;;;;;;;;5016639;28;20021;-79
2022/09/27 10:48:27;;;;;;;7.90;3.08;;;;;;;;;;5016979;28;20536;-80
2022/09/27 10:51:06;;;;;;;8.57;3.38;;;;;;;;;;5036273;28;20168;-80
2022/09/27 10:53:33;;;;;;;8.63;3.70;;;;;;;;;;5045227;28;20029;-79
2022/09/27 10:55:58;;;;;;;5.50;2.92;;;;;;;;;;5000557;28;20487;-80
2022/09/27 10:58:32;;;;;;;7.97;3.17;;;;;;;;;;4984699;28;20044;-79
2022/09/27 11:01:01;;;;;;;11.38;3.10;;;;;;;;;;5009693;28;20036;-80
2022/09/27 11:03:27;;;;;;;7.43;3.65;;;;;;;;;;5001200;28;20407;-80
2022/09/27 11:05:54;;;;;;;5.40;3.35;;;;;;;;;;4985000;28;20087;-79
2022/09/27 11:08:22;;;;;;;6.60;3.47;;;;;;;;;;5000364;28;20033;-80
2022/09/27 11:11:11;;;;;;;7.68;3.67;;;;;;;;;;5011774;28;20028;-80
2022/09/27 11:13:36;;;;;;;6.07;3.58;;;;;;;;;;5033914;28;20035;-80
2022/09/27 11:16:15;;;;;;;5.68;3.40;;;;;;;;;;5019709;28;20021;-80
2022/09/27 11:18:40;;;;;;;6.50;3.58;;;;;;;;;;5003733;28;20067;-80
2022/09/27 11:21:25;;;;;;;7.70;3.10;;;;;;;;;;5036906;28;20073;-82
2022/09/27 11:24:03;;;;;;;6.53;3.22;;;;;;;;;;5004245;28;20064;-81
2022/09/27 11:26:35;;;;;;;5.75;3.20;;;;;;;;;;5036443;28;20045;-82
2022/09/27 11:29:16;;;;;;;6.10;2.85;;;;;;;;;;5020331;28;20499;-82
2022/09/27 11:32:20;;;;;;;7.55;3.00;;;;;;;;;;5015779;28;20072;-81
2022/09/27 11:35:01;;;;;;;5.60;2.85;;;;;;;;;;5002153;28;20050;-82
2022/09/27 11:37:39;;;;;;;4.55;2.80;;;;;;;;;;5016588;28;20116;-82
2022/09/27 11:40:27;;;;;;;6.03;2.80;;;;;;;;;;5016233;28;20037;-82
2022/09/27 11:42:56;;;;;;;8.15;3.10;;;;;;;;;;5014669;28;20103;-83
2022/09/27 11:45:37;;;;;;;5.65;2.45;;;;;;;;;;4999201;28;20025;-82
2022/09/27 11:48:38;;;;;;;7.45;2.83;;;;;;;;;;5032434;28;20028;-82
2022/09/27 11:51:22;;;;;;;6.97;4.05;;;;;;;;;;5043024;28;20128;-82
2022/09/27 11:53:58;;;;;;;5.40;2.95;;;;;;;;;;5040410;28;20080;-81
2022/09/27 11:56:47;;;;;;;7.20;3.67;;;;;;;;;;5003282;28;20033;-81
2022/09/27 11:59:28;;;;;;;9.73;3.80;;;;;;;;;;5020801;28;20120;-81
2022/09/27 12:02:11;;;;;;;6.93;3.13;;;;;;;;;;5036630;28;20112;-81
2022/09/27 12:04:49;;;;;;;8.20;3.30;;;;;;;;;;5019485;28;20483;-80
2022/09/27 12:07:17;;;;;;;6.78;3.60;;;;;;;;;;5053246;28;20040;-80
2022/09/27 12:09:45;;;;;;;7.53;3.55;;;;;;;;;;5053166;28;20043;-81
2022/09/27 12:12:25;;;;;;;5.93;2.78;;;;;;;;;;5003078;28;20029;-81
2022/09/27 12:15:32;;;;;;;4.85;3.05;;;;;;;;;;5002791;28;20041;-80
2022/09/27 12:18:20;;;;;;;7.95;3.00;;;;;;;;;;5038141;28;20541;-81
2022/09/27 12:20:46;;;;;;;6.85;2.60;;;;;;;;;;5018708;28;20039;-80
2022/09/27 12:23:36;;;;;;;7.65;3.25;;;;;;;;;;5018813;28;20037;-81
2022/09/27 12:26:05;;;;;;;5.15;2.45;;;;;;;;;;5019101;28;20398;-80
2022/09/27 12:28:35;;;;;;;7.85;2.60;;;;;;;;;;4986371;28;20494;-81
2022/09/27 12:31:24;;;;;;;5.60;2.13;;;;;;;;;;5018684;28;20052;-81
2022/09/27 12:33:59;;;;;;;7.75;2.35;;;;;;;;;;5019152;28;20090;-81
2022/09/27 12:36:27;;;;;;;4.50;2.25;;;;;;;;;;5018777;28;20032;-81
2022/09/27 12:38:57;;;;;;;5.70;2.35;;;;;;;;;;4985510;28;20028;-80
2022/09/27 12:41:23;;;;;;;5.35;1.80;;;;;;;;;;5018086;28;20047;-80
2022/09/27 12:43:49;;;;;;;6.72;2.70;;;;;;;;;;5018156;28;20383;-80
2022/09/27 12:46:41;;;;;;;4.95;2.30;;;;;;;;;;5002218;28;20044;-80
2022/09/27 12:49:17;;;;;;;6.40;2.15;;;;;;;;;;5019707;28;20514;-81
2022/09/27 12:51:51;;;;;;;4.43;1.50;;;;;;;;;;5037811;28;20035;-81
2022/09/27 12:54:19;;;;;;;4.70;1.65;;;;;;;;;;5020455;28;20044;-81
2022/09/27 12:57:40;;;;;;;5.70;1.88;;;;;;;;;;5034478;28;20479;-80
2022/09/27 13:00:26;;;;;;;3.63;1.80;;;;;;;;;;4994431;28;20782;-80
2022/09/27 13:02:54;;;;;;;4.65;1.63;;;;;;;;;;5017255;28;20127;-81
2022/09/27 13:05:27;;;;;;;4.65;1.85;;;;;;;;;;5017411;28;20061;-84
2022/09/27 13:08:23;;;;;;;3.72;1.48;;;;;;;;;;5052227;28;20442;-81
2022/09/27 13:10:57;;;;;;;5.15;1.80;;;;;;;;;;5034421;28;20029;-82
2022/09/27 13:13:25;;;;;;;5.18;1.65;;;;;;;;;;5017787;28;20390;-81
2022/09/27 13:15:54;;;;;;;3.90;1.83;;;;;;;;;;5017506;28;20068;-82
2022/09/27 13:18:36;;;;;;;4.07;1.63;;;;;;;;;;5048598;28;20029;-83
2022/09/27 13:21:03;;;;;;;4.32;1.75;;;;;;;;;;5018469;28;20025;-81
2022/09/27 13:23:30;;;;;;;4.07;1.52;;;;;;;;;;5000926;28;20107;-82
2022/09/27 13:25:58;;;;;;;2.97;1.40;;;;;;;;;;5027304;28;20037;-82
2022/09/27 13:28:30;;;;;;;3.67;1.65;;;;;;;;;;5007390;28;20048;-82
2022/09/27 13:31:09;;;;;;;3.72;1.35;;;;;;;;;;5042765;28;20028;-82
2022/09/27 13:33:51;;;;;;;2.90;1.40;;;;;;;;;;5033307;28;20051;-82
2022/09/27 13:36:31;;;;;;;2.92;1.17;;;;;;;;;;5009632;28;20041;-83
2022/09/27 13:39:10;;;;;;;4.28;1.20;;;;;;;;;;5026205;28;20033;-82
2022/09/27 13:41:45;;;;;;;4.20;1.17;;;;;;;;;;5042939;28;20486;-83
2022/09/27 13:44:29;;;;;;;3.55;1.58;;;;;;;;;;5040876;28;20099;-83
2022/09/27 13:46:59;;;;;;;3.65;1.10;;;;;;;;;;5045047;28;20032;-81
2022/09/27 13:49:28;;;;;;;4.55;1.77;;;;;;;;;;5018239;28;20044;-83
2022/09/27 13:52:00;;;;;;;5.38;2.22;;;;;;;;;;5001024;28;20071;-82
2022/09/27 13:54:51;;;;;;;5.80;2.40;;;;;;;;;;5017080;28;20175;-81
2022/09/27 13:57:35;;;;;;;4.97;2.10;;;;;;;;;;5051528;28;20040;-82
2022/09/27 14:00:03;;;;;;;5.55;2.45;;;;;;;;;;5033845;28;20039;-81
2022/09/27 14:02:31;;;;;;;7.95;2.85;;;;;;;;;;5034055;28;20021;-81
2022/09/27 14:04:57;;;;;;;5.18;2.00;;;;;;;;;;5017086;28;20037;-81
2022/09/27 14:07:25;;;;;;;5.88;1.95;;;;;;;;;;5017063;28;20124;-81
2022/09/27 14:09:52;;;;;;;4.35;1.92;;;;;;;;;;5016791;28;20029;-82
2022/09/27 14:12:20;;;;;;;4.88;2.15;;;;;;;;;;4997572;28;20033;-81
2022/09/27 14:14:46;;;;;;;4.85;1.92;;;;;;;;;;4997446;28;20049;-81
2022/09/27 14:17:12;;;;;;;6.45;1.50;;;;;;;;;;5003030;28;20499;-80
2022/09/27 14:19:58;;;;;;;7.63;2.05;;;;;;;;;;5038131;28;20055;-80
2022/09/27 14:22:24;;;;;;;6.93;1.85;;;;;;;;;;5027019;28;20083;-80
2022/09/27 14:24:52;;;;;;;4.78;1.77;;;;;;;;;;5039636;28;20115;-79
2022/09/27 14:27:20;;;;;;;4.07;1.45;;;;;;;;;;5041057;28;20056;-79
2022/09/27 14:29:52;;;;;;;6.00;1.90;;;;;;;;;;5057270;28;20028;-79
2022/09/27 14:32:46;;;;;;;3.70;1.53;;;;;;;;;;5024459;28;20028;-80
2022/09/27 14:37:59;;;;;;;4.93;2.40;;;;;;;;;;5048826;28;20086;-80
2022/09/27 14:40:25;;;;;;;3.92;1.85;;;;;;;;;;5040587;28;20040;-81
2022/09/27 14:43:17;;;;;;;5.75;1.90;;;;;;;;;;5007812;28;20115;-80
2022/09/27 14:45:45;;;;;;;3.00;1.40;;;;;;;;;;5015545;28;20029;-80
2022/09/27 14:48:26;;;;;;;4.13;1.70;;;;;;;;;;5007476;28;20403;-80
2022/09/27 14:50:56;;;;;;;4.47;1.47;;;;;;;;;;5040978;28;20032;-81
2022/09/27 14:53:23;;;;;;;3.65;1.60;;;;;;;;;;5029067;28;20275;-80
2022/09/27 14:55:48;;;;;;;4.43;1.50;;;;;;;;;;5011691;28;20039;-80
2022/09/27 14:58:13;;;;;;;5.38;1.58;;;;;;;;;;5000840;28;20049;-80
2022/09/27 15:00:40;;;;;;;5.05;2.17;;;;;;;;;;5000359;28;20030;-80
2022/09/27 15:03:07;;;;;;;6.15;1.30;;;;;;;;;;4983085;28;20048;-80
2022/09/27 15:05:33;;;;;;;4.60;1.13;;;;;;;;;;4983976;28;20435;-80
2022/09/27 15:08:01;;;;;;;3.67;1.52;;;;;;;;;;5000309;28;20028;-80
2022/09/27 15:10:31;;;;;;;3.75;1.77;;;;;;;;;;5041427;28;20028;-80
2022/09/27 15:13:00;;;;;;;3.88;1.52;;;;;;;;;;5043787;28;20110;-81
2022/09/27 15:15:31;;;;;;;5.05;1.42;;;;;;;;;;5037302;28;20023;-80